Time;durP1;ratioP1;P1;durP2;ratioP2;P2;SDS_P1;SDS_P2;PMS_P1;PMS_P2;Temp;Humidity;BMP_temperature;BMP_pressure;BME280_temperature;BME280_humidity;BME280_pressure;Samples;Min_cycle;Max_cycle;Signal;HPM_P1;HPM_P2
2024/01/17 00:00:23;;;;;;;44.53;25.10;;;0.80;99.90;;;;;;4842730;29;20501;-81
2024/01/17 00:03:07;;;;;;;43.05;27.08;;;0.80;99.90;;;;;;4876350;29;20048;-80
2024/01/17 00:05:36;;;;;;;41.50;23.88;;;0.80;99.90;;;;;;4877510;29;20041;-80
2024/01/17 00:08:05;;;;;;;34.70;20.40;;;0.70;99.90;;;;;;4877095;29;20112;-81
2024/01/17 00:10:31;;;;;;;27.25;16.40;;;0.70;99.90;;;;;;4877172;29;20056;-81
2024/01/17 00:13:00;;;;;;;27.38;16.02;;;0.70;99.90;;;;;;4878917;29;20029;-79
2024/01/17 00:15:31;;;;;;;30.33;15.18;;;0.70;99.90;;;;;;4861109;29;20052;-81
2024/01/17 00:18:00;;;;;;;28.48;16.98;;;0.70;99.90;;;;;;4862452;29;20498;-80
2024/01/17 00:20:46;;;;;;;36.70;19.70;;;0.70;99.90;;;;;;4895221;29;20050;-81
2024/01/17 00:23:15;;;;;;;33.90;17.08;;;0.70;99.90;;;;;;4918181;29;20048;-79
2024/01/17 00:25:55;;;;;;;27.17;13.88;;;0.70;99.90;;;;;;4935456;29;20097;-80
2024/01/17 00:32:04;;;;;;;28.13;16.85;;;0.70;99.90;;;;;;4920992;29;20040;-81
2024/01/17 00:34:51;;;;;;;26.83;16.35;;;0.70;99.90;;;;;;4921206;29;20076;-80
2024/01/17 00:37:20;;;;;;;32.45;19.15;;;0.80;99.90;;;;;;4937342;29;20050;-80
2024/01/17 00:40:05;;;;;;;29.20;18.20;;;0.80;99.90;;;;;;4948964;29;20047;-80
2024/01/17 00:43:04;;;;;;;30.45;18.02;;;0.70;99.90;;;;;;4922061;29;20114;-80
2024/01/17 00:48:31;;;;;;;24.20;13.50;;;0.70;99.90;;;;;;4976314;28;20098;-79
2024/01/17 00:51:11;;;;;;;28.75;17.48;;;0.60;99.90;;;;;;4959937;28;20031;-80
2024/01/17 00:54:02;;;;;;;29.42;16.65;;;0.60;99.90;;;;;;4949463;28;20435;-80
2024/01/17 01:02:50;;;;;;;26.08;16.13;;;0.70;99.90;;;;;;4629563;26;20454;-79
2024/01/17 01:05:17;;;;;;;33.13;16.27;;;0.70;99.90;;;;;;4974117;28;20093;-79
2024/01/17 01:08:45;;;;;;;24.33;15.13;;;0.80;99.90;;;;;;4962500;28;20050;-80
2024/01/17 01:11:18;;;;;;;27.95;16.17;;;0.80;99.90;;;;;;4947533;28;20022;-80
2024/01/17 01:20:39;;;;;;;27.50;18.60;;;0.80;99.90;;;;;;4917766;29;20096;-79
2024/01/17 01:23:12;;;;;;;37.40;24.23;;;0.80;99.90;;;;;;4908091;29;20063;-80
2024/01/17 01:25:41;;;;;;;47.75;30.08;;;0.80;99.90;;;;;;4914879;29;20716;-81
2024/01/17 01:28:19;;;;;;;56.03;36.00;;;0.70;99.90;;;;;;4915024;29;20535;-80
2024/01/17 01:30:45;;;;;;;27.58;16.33;;;0.70;99.90;;;;;;4914839;29;20040;-80
2024/01/17 01:33:45;;;;;;;35.42;20.58;;;0.60;99.90;;;;;;4915296;29;20079;-80
2024/01/17 01:36:14;;;;;;;33.28;20.67;;;0.60;99.90;;;;;;4906517;29;20040;-79
2024/01/17 01:39:34;;;;;;;;;;;;;;;;;;;;;
2024/01/17 01:49:55;;;;;;;46.70;28.75;;;0.40;99.90;;;;;;4946517;29;20051;-81
2024/01/17 01:53:52;;;;;;;49.65;28.15;;;0.50;99.90;;;;;;4920026;29;20040;-81
2024/01/17 01:56:31;;;;;;;39.80;23.10;;;0.50;99.90;;;;;;4894370;23;20485;-81
2024/01/17 01:58:59;;;;;;;35.03;21.67;;;0.50;99.90;;;;;;4975198;28;20109;-80
2024/01/17 02:01:49;;;;;;;31.77;18.17;;;0.50;99.90;;;;;;4954515;28;20521;-81
2024/01/17 02:04:57;;;;;;;26.52;15.98;;;0.40;99.90;;;;;;4973305;28;20431;-81
2024/01/17 02:10:21;;;;;;;32.42;20.80;;;0.50;99.90;;;;;;5018986;23;20596;-80
2024/01/17 02:12:49;;;;;;;32.25;19.25;;;0.50;99.90;;;;;;4975190;28;20023;-81
2024/01/17 02:15:15;;;;;;;31.98;21.45;;;0.40;99.90;;;;;;4975168;28;20515;-82
2024/01/17 02:17:42;;;;;;;32.13;21.35;;;0.40;99.90;;;;;;4975065;28;20061;-83
2024/01/17 02:20:08;;;;;;;30.42;18.23;;;0.40;99.90;;;;;;4975035;28;20023;-82
2024/01/17 02:22:34;;;;;;;31.73;19.33;;;0.50;99.90;;;;;;4973741;28;20039;-81
2024/01/17 02:25:04;;;;;;;28.80;18.63;;;0.50;99.90;;;;;;4974603;28;20030;-81
2024/01/17 02:27:30;;;;;;;35.50;21.20;;;0.60;99.90;;;;;;4974713;28;20110;-81
2024/01/17 02:29:57;;;;;;;37.63;21.48;;;0.60;99.90;;;;;;4974991;28;20031;-82
2024/01/17 02:32:23;;;;;;;28.27;17.00;;;0.50;99.90;;;;;;4974746;28;20031;-82
2024/01/17 02:34:50;;;;;;;30.88;16.85;;;0.50;99.90;;;;;;4957488;28;20109;-82
2024/01/17 02:37:16;;;;;;;31.83;18.48;;;0.50;99.90;;;;;;4974994;28;20038;-83
2024/01/17 02:39:42;;;;;;;30.10;17.33;;;0.40;99.90;;;;;;4974291;28;20131;-82
2024/01/17 02:42:07;;;;;;;32.00;18.23;;;0.30;99.90;;;;;;4974792;28;20174;-82
2024/01/17 02:44:33;;;;;;;28.50;18.10;;;0.40;99.90;;;;;;4958455;28;20077;-83
2024/01/17 02:46:59;;;;;;;29.88;15.57;;;0.20;99.90;;;;;;4969205;28;20499;-82
2024/01/17 02:49:25;;;;;;;30.58;18.23;;;0.10;99.90;;;;;;4972401;28;20085;-82
2024/01/17 02:51:51;;;;;;;31.00;16.63;;;0.00;99.90;;;;;;4974262;28;20479;-82
2024/01/17 02:54:17;;;;;;;36.60;20.75;;;0.10;99.90;;;;;;4974584;28;20046;-82
2024/01/17 02:56:43;;;;;;;39.88;23.08;;;0.00;99.90;;;;;;4974001;28;20041;-82
2024/01/17 02:59:09;;;;;;;27.52;16.52;;;0.10;99.90;;;;;;4974437;28;20045;-82
2024/01/17 03:01:35;;;;;;;30.30;16.83;;;0.10;99.90;;;;;;4972367;28;20093;-81
2024/01/17 03:04:02;;;;;;;25.63;15.23;;;0.20;99.90;;;;;;4958557;28;20027;-82
2024/01/17 03:06:28;;;;;;;28.27;15.10;;;0.10;99.90;;;;;;4947587;28;20046;-82
2024/01/17 03:08:53;;;;;;;30.65;17.63;;;0.10;99.90;;;;;;4974100;28;20431;-82
2024/01/17 03:11:19;;;;;;;25.27;14.98;;;0.10;99.90;;;;;;4973874;28;20482;-83
2024/01/17 03:13:45;;;;;;;26.60;16.30;;;0.00;99.90;;;;;;4974320;28;20394;-82
2024/01/17 03:16:13;;;;;;;29.33;17.23;;;-0.10;99.90;;;;;;4973923;28;20057;-82
2024/01/17 03:18:39;;;;;;;28.42;18.10;;;-0.10;99.90;;;;;;4973996;28;20031;-82
2024/01/17 03:21:06;;;;;;;28.42;17.42;;;0.00;99.90;;;;;;4974013;28;20047;-82
2024/01/17 03:23:31;;;;;;;26.05;16.25;;;0.00;99.90;;;;;;4973707;28;20124;-83
2024/01/17 03:25:57;;;;;;;29.77;17.45;;;0.00;99.90;;;;;;4974089;28;20478;-82
2024/01/17 03:28:23;;;;;;;36.35;23.70;;;-0.10;99.90;;;;;;4973551;28;20034;-83
2024/01/17 03:30:49;;;;;;;40.85;24.98;;;-0.10;99.90;;;;;;4974156;28;20038;-83
2024/01/17 03:33:15;;;;;;;32.83;19.80;;;-0.30;99.90;;;;;;4960717;28;20105;-81
2024/01/17 03:35:42;;;;;;;30.05;18.15;;;-0.20;99.90;;;;;;4956166;28;20529;-82
2024/01/17 03:38:08;;;;;;;26.70;16.35;;;-0.30;99.90;;;;;;4973364;28;20049;-83
2024/01/17 03:40:34;;;;;;;25.98;16.20;;;-0.30;99.90;;;;;;4973172;28;20034;-82
2024/01/17 03:43:00;;;;;;;28.13;15.50;;;-0.30;99.90;;;;;;4973829;28;20027;-82
2024/01/17 03:45:26;;;;;;;29.23;16.83;;;-0.30;99.90;;;;;;4973343;28;20471;-83
2024/01/17 03:47:52;;;;;;;28.00;16.33;;;-0.40;99.90;;;;;;4973414;28;20023;-82
2024/01/17 03:50:18;;;;;;;32.60;18.05;;;-0.40;99.90;;;;;;4973719;28;20061;-83
2024/01/17 03:52:44;;;;;;;33.05;20.88;;;-0.40;99.90;;;;;;4956142;28;20147;-82
2024/01/17 03:55:09;;;;;;;32.78;17.98;;;-0.40;99.90;;;;;;4973168;28;20019;-82
2024/01/17 03:57:35;;;;;;;43.85;21.85;;;-0.40;99.90;;;;;;4973292;28;20065;-82
2024/01/17 04:00:06;;;;;;;29.83;19.15;;;-0.30;99.90;;;;;;4955942;28;20030;-82
2024/01/17 04:02:32;;;;;;;26.52;18.27;;;-0.30;99.90;;;;;;4972895;28;20113;-82
2024/01/17 04:04:57;;;;;;;31.23;17.70;;;-0.30;99.90;;;;;;4955920;28;20114;-83
2024/01/17 04:07:23;;;;;;;28.25;17.27;;;-0.20;99.90;;;;;;4973461;28;20062;-82
2024/01/17 04:09:49;;;;;;;32.63;19.08;;;-0.20;99.90;;;;;;4941500;28;20038;-82
2024/01/17 04:12:15;;;;;;;32.05;18.80;;;-0.20;99.90;;;;;;4962877;28;20035;-82
2024/01/17 04:14:41;;;;;;;33.50;18.45;;;-0.10;99.90;;;;;;4973432;28;20045;-82
2024/01/17 04:17:11;;;;;;;29.23;17.40;;;0.00;99.90;;;;;;4955879;28;20035;-83
2024/01/17 04:19:36;;;;;;;27.13;17.05;;;0.00;99.90;;;;;;4973352;28;20027;-83
2024/01/17 04:22:03;;;;;;;28.92;16.85;;;0.20;99.90;;;;;;4973122;28;20038;-82
2024/01/17 04:24:29;;;;;;;32.22;19.23;;;0.10;99.90;;;;;;4972870;28;20054;-83
2024/01/17 04:26:56;;;;;;;30.48;20.98;;;0.10;99.90;;;;;;4973165;28;20030;-83
2024/01/17 04:29:23;;;;;;;31.80;20.42;;;-0.10;99.90;;;;;;4973066;28;20022;-82
2024/01/17 04:31:49;;;;;;;41.00;25.98;;;-0.10;99.90;;;;;;4973107;28;20065;-82
2024/01/17 04:34:15;;;;;;;38.88;24.85;;;-0.10;99.90;;;;;;4972759;28;20023;-82
2024/01/17 04:36:41;;;;;;;33.05;21.48;;;0.00;99.90;;;;;;4973077;28;20038;-83
2024/01/17 04:39:08;;;;;;;40.08;24.40;;;0.00;99.90;;;;;;4954968;28;20434;-83
2024/01/17 04:41:34;;;;;;;31.33;19.88;;;0.00;99.90;;;;;;4972990;28;20386;-83
2024/01/17 04:44:00;;;;;;;32.97;20.20;;;-0.10;99.90;;;;;;4972814;28;20031;-82
2024/01/17 04:46:27;;;;;;;37.55;23.48;;;-0.10;99.90;;;;;;4973178;28;20031;-82
2024/01/17 04:48:53;;;;;;;42.10;24.70;;;-0.10;99.90;;;;;;4972763;28;20453;-82
2024/01/17 04:51:22;;;;;;;48.60;30.88;;;-0.10;99.90;;;;;;4965047;28;20057;-83
2024/01/17 04:53:48;;;;;;;48.08;30.77;;;-0.10;99.90;;;;;;4955944;28;20027;-82
2024/01/17 04:56:16;;;;;;;49.42;31.40;;;-0.10;99.90;;;;;;4972944;28;20554;-83
2024/01/17 04:58:45;;;;;;;36.80;25.17;;;-0.20;99.90;;;;;;4970379;28;20037;-82
2024/01/17 05:01:11;;;;;;;33.55;20.48;;;-0.30;99.90;;;;;;4971081;28;20453;-83
2024/01/17 05:03:40;;;;;;;32.30;18.67;;;-0.40;99.90;;;;;;4972845;28;20035;-83
2024/01/17 05:06:07;;;;;;;31.85;18.20;;;-0.40;99.90;;;;;;4973311;28;20480;-83
2024/01/17 05:08:34;;;;;;;28.42;18.35;;;-0.40;99.90;;;;;;4973153;28;20498;-82
2024/01/17 05:11:00;;;;;;;33.20;20.27;;;-0.40;99.90;;;;;;4955531;28;20055;-82
2024/01/17 05:13:26;;;;;;;32.83;19.50;;;-0.40;99.90;;;;;;4958634;28;20035;-83
2024/01/17 05:15:52;;;;;;;31.02;20.73;;;-0.50;99.90;;;;;;4978602;28;20061;-83
2024/01/17 05:18:18;;;;;;;33.38;21.40;;;-0.50;99.90;;;;;;4972643;28;20549;-83
2024/01/17 05:20:44;;;;;;;33.53;20.73;;;-0.50;99.90;;;;;;4977628;28;20113;-84
2024/01/17 05:23:10;;;;;;;27.67;17.83;;;-0.50;99.90;;;;;;4980794;28;20031;-83
2024/01/17 05:25:36;;;;;;;30.98;19.63;;;-0.40;99.90;;;;;;4981208;28;20035;-83
2024/01/17 05:28:02;;;;;;;37.42;22.05;;;-0.30;99.90;;;;;;4965261;28;20450;-84
2024/01/17 05:30:28;;;;;;;31.60;19.90;;;-0.20;99.90;;;;;;4977375;28;20032;-83
2024/01/17 05:32:55;;;;;;;31.20;18.05;;;-0.20;99.90;;;;;;4977215;28;20031;-81
2024/01/17 05:35:22;;;;;;;31.23;20.50;;;-0.20;99.90;;;;;;4976014;28;20055;-80
2024/01/17 05:37:48;;;;;;;32.55;18.77;;;-0.20;99.90;;;;;;4975256;28;20066;-80
2024/01/17 05:40:14;;;;;;;26.48;16.52;;;-0.20;99.90;;;;;;4958384;28;20034;-81
2024/01/17 05:42:42;;;;;;;27.73;17.50;;;-0.20;99.90;;;;;;4975487;28;20023;-80
2024/01/17 05:45:08;;;;;;;31.17;17.60;;;-0.20;99.90;;;;;;4958154;28;20034;-79
2024/01/17 05:47:38;;;;;;;25.65;15.82;;;-0.10;99.90;;;;;;4957959;28;20077;-80
2024/01/17 05:50:08;;;;;;;34.22;22.60;;;-0.10;99.90;;;;;;4974952;28;20046;-80
2024/01/17 05:52:39;;;;;;;42.67;28.38;;;-0.10;99.90;;;;;;4963084;28;20516;-79
2024/01/17 05:55:09;;;;;;;35.92;22.63;;;0.00;99.90;;;;;;4974916;28;20041;-79
2024/01/17 05:57:36;;;;;;;36.45;22.38;;;0.00;99.90;;;;;;4975291;28;20050;-80
2024/01/17 06:00:09;;;;;;;38.95;26.92;;;0.00;99.90;;;;;;4970817;28;20517;-80
2024/01/17 06:02:40;;;;;;;35.22;21.25;;;0.00;99.90;;;;;;4955364;28;20062;-80
2024/01/17 06:05:07;;;;;;;42.78;23.52;;;0.00;99.90;;;;;;4972419;28;20033;-80
2024/01/17 06:07:33;;;;;;;38.05;21.90;;;0.10;99.90;;;;;;4975327;28;20101;-81
2024/01/17 06:10:00;;;;;;;42.90;26.60;;;0.30;99.90;;;;;;4974509;28;20051;-80
2024/01/17 06:12:26;;;;;;;38.67;23.73;;;0.40;99.90;;;;;;4975203;28;20034;-79
2024/01/17 06:14:52;;;;;;;46.88;31.10;;;0.60;99.90;;;;;;4975372;28;20363;-81
2024/01/17 06:17:19;;;;;;;42.55;25.80;;;0.70;99.90;;;;;;4968296;28;20055;-81
2024/01/17 06:19:44;;;;;;;43.97;28.60;;;0.90;99.90;;;;;;4972357;28;20033;-80
2024/01/17 06:22:10;;;;;;;43.17;27.30;;;1.00;99.90;;;;;;4974910;28;20022;-80
2024/01/17 06:24:36;;;;;;;41.22;25.05;;;1.20;99.90;;;;;;4973843;28;20113;-80
2024/01/17 06:27:03;;;;;;;44.58;30.27;;;1.30;99.90;;;;;;4975196;28;20023;-80
2024/01/17 06:29:30;;;;;;;49.33;33.17;;;1.40;99.90;;;;;;4957164;28;20039;-79
2024/01/17 06:31:57;;;;;;;50.85;31.48;;;1.50;99.90;;;;;;4974586;28;20085;-80
2024/01/17 06:34:23;;;;;;;39.22;25.00;;;1.50;99.90;;;;;;4972989;28;20474;-79
2024/01/17 06:36:49;;;;;;;39.58;24.38;;;1.60;99.90;;;;;;4966557;28;20034;-79
2024/01/17 06:39:19;;;;;;;38.60;21.02;;;1.60;99.90;;;;;;4974226;28;20034;-79
2024/01/17 06:41:47;;;;;;;29.02;17.85;;;1.60;99.90;;;;;;4974281;28;20026;-79
2024/01/17 06:44:13;;;;;;;41.95;20.17;;;1.60;99.90;;;;;;4974893;28;20121;-80
2024/01/17 06:46:39;;;;;;;38.08;20.17;;;1.60;99.90;;;;;;4974307;28;20415;-79
2024/01/17 06:49:05;;;;;;;29.52;17.63;;;1.70;99.90;;;;;;4974018;28;20046;-80
2024/01/17 06:51:31;;;;;;;29.05;19.05;;;1.80;99.90;;;;;;4974037;28;20101;-79
2024/01/17 06:53:57;;;;;;;47.45;28.80;;;1.90;99.90;;;;;;4973921;28;20026;-79
2024/01/17 06:56:22;;;;;;;35.75;19.77;;;2.00;99.90;;;;;;4974015;28;20462;-79
2024/01/17 06:58:48;;;;;;;28.85;18.83;;;2.00;99.90;;;;;;4973894;28;20032;-79
2024/01/17 07:01:14;;;;;;;33.03;18.60;;;2.00;99.90;;;;;;4974290;28;20117;-79
2024/01/17 07:03:40;;;;;;;29.00;18.83;;;2.00;99.90;;;;;;4974230;28;20513;-79
2024/01/17 07:06:07;;;;;;;28.63;17.45;;;2.00;99.90;;;;;;4973786;28;20061;-79
2024/01/17 07:08:40;;;;;;;40.72;25.55;;;2.10;99.90;;;;;;4973348;28;20085;-78
2024/01/17 07:11:11;;;;;;;36.58;23.17;;;2.10;99.90;;;;;;4957047;28;20051;-78
2024/01/17 07:13:38;;;;;;;34.95;21.58;;;2.20;99.90;;;;;;4974757;28;20867;-80
2024/01/17 07:16:07;;;;;;;36.95;22.08;;;2.20;99.90;;;;;;4956853;28;20470;-77
2024/01/17 07:18:34;;;;;;;37.83;22.75;;;2.30;99.90;;;;;;4955695;28;20509;-78
2024/01/17 07:21:06;;;;;;;37.17;22.63;;;2.30;99.90;;;;;;4972860;28;20029;-78
2024/01/17 07:23:33;;;;;;;39.90;23.52;;;2.40;99.90;;;;;;4944317;28;20394;-78
2024/01/17 07:26:00;;;;;;;39.47;24.58;;;2.40;99.90;;;;;;4970903;28;20026;-78
2024/01/17 07:28:26;;;;;;;35.30;21.33;;;2.50;99.90;;;;;;4973971;28;20479;-78
2024/01/17 07:30:51;;;;;;;34.47;20.25;;;2.60;99.90;;;;;;4972912;28;20027;-77
2024/01/17 07:33:17;;;;;;;34.88;19.90;;;2.60;99.90;;;;;;4956265;28;20132;-78
2024/01/17 07:35:43;;;;;;;33.55;18.35;;;2.70;99.90;;;;;;4973586;28;20026;-78
2024/01/17 07:38:10;;;;;;;40.80;19.55;;;2.80;99.90;;;;;;4973207;28;20089;-78
2024/01/17 07:40:37;;;;;;;38.20;21.25;;;2.80;99.90;;;;;;4973065;28;20036;-78
2024/01/17 07:43:03;;;;;;;46.63;24.23;;;2.80;99.90;;;;;;4956279;28;20026;-77
2024/01/17 07:45:29;;;;;;;40.17;22.42;;;2.90;99.90;;;;;;4973375;28;20118;-78
2024/01/17 07:47:55;;;;;;;38.38;20.15;;;3.00;99.90;;;;;;4955086;28;20086;-78
2024/01/17 07:50:21;;;;;;;35.13;20.10;;;3.10;99.90;;;;;;4973127;28;20035;-78
2024/01/17 07:52:46;;;;;;;34.63;20.00;;;3.10;99.90;;;;;;4973402;28;20066;-79
2024/01/17 07:55:12;;;;;;;37.28;21.02;;;3.20;99.90;;;;;;4972989;28;20059;-79
2024/01/17 07:57:38;;;;;;;48.17;23.15;;;3.30;99.90;;;;;;4972202;28;20285;-78
2024/01/17 08:00:05;;;;;;;38.30;22.13;;;3.30;99.90;;;;;;4972578;28;20370;-78
2024/01/17 08:02:39;;;;;;;63.60;36.40;;;3.30;99.90;;;;;;4972902;28;20383;-78
2024/01/17 08:05:06;;;;;;;74.68;43.17;;;3.50;99.90;;;;;;4972907;28;20455;-77
2024/01/17 08:07:33;;;;;;;57.28;28.73;;;3.50;99.90;;;;;;4973269;28;20026;-77
2024/01/17 08:10:04;;;;;;;52.53;32.80;;;3.60;99.90;;;;;;4972262;28;20085;-77
2024/01/17 08:12:34;;;;;;;73.40;44.08;;;3.70;99.90;;;;;;4972335;28;20031;-79
2024/01/17 08:15:00;;;;;;;76.35;43.72;;;3.80;99.90;;;;;;4972688;28;20029;-78
2024/01/17 08:17:26;;;;;;;45.78;28.35;;;3.90;99.90;;;;;;4972573;28;20034;-77
2024/01/17 08:19:52;;;;;;;40.42;27.02;;;4.00;99.90;;;;;;4954791;28;20026;-78
2024/01/17 08:22:17;;;;;;;53.83;30.33;;;4.10;99.90;;;;;;4973244;28;20031;-78
2024/01/17 08:24:43;;;;;;;43.22;27.95;;;4.10;99.90;;;;;;4972282;28;20154;-80
2024/01/17 08:27:09;;;;;;;39.78;25.00;;;4.20;99.90;;;;;;4955318;28;20394;-78
2024/01/17 08:29:35;;;;;;;52.50;28.77;;;4.30;99.90;;;;;;4972128;28;20438;-77
2024/01/17 08:32:01;;;;;;;36.03;21.65;;;4.40;99.90;;;;;;4964189;28;20394;-78
2024/01/17 08:34:27;;;;;;;35.53;23.15;;;4.40;99.90;;;;;;4972529;28;20031;-77
2024/01/17 08:36:54;;;;;;;38.67;24.40;;;4.50;99.90;;;;;;4954793;28;20154;-78
2024/01/17 08:39:20;;;;;;;36.47;22.58;;;4.50;99.90;;;;;;4968603;28;20577;-79
2024/01/17 08:41:47;;;;;;;35.38;23.02;;;4.60;99.90;;;;;;4972587;28;20089;-78
2024/01/17 08:44:16;;;;;;;45.33;26.73;;;4.70;99.90;;;;;;4968823;28;20011;-77
2024/01/17 08:46:45;;;;;;;37.72;24.27;;;4.70;99.90;;;;;;4972675;28;20023;-76
2024/01/17 08:49:11;;;;;;;38.95;24.73;;;4.80;99.90;;;;;;4975952;28;20039;-78
2024/01/17 08:51:37;;;;;;;36.03;22.55;;;4.90;99.90;;;;;;4976284;28;20031;-77
2024/01/17 08:54:07;;;;;;;37.60;23.33;;;4.90;99.90;;;;;;4976223;28;20049;-77
2024/01/17 08:56:33;;;;;;;35.40;22.90;;;5.10;99.90;;;;;;4976451;28;20035;-77
2024/01/17 08:59:01;;;;;;;37.92;23.00;;;5.20;99.90;;;;;;4975853;28;20062;-77
2024/01/17 09:01:28;;;;;;;38.28;23.25;;;5.20;99.90;;;;;;4975009;28;20053;-75
2024/01/17 09:03:54;;;;;;;34.72;22.00;;;5.20;99.90;;;;;;4963401;28;20023;-78
2024/01/17 09:06:20;;;;;;;34.10;20.35;;;5.30;99.90;;;;;;4958386;28;20130;-78
2024/01/17 09:08:45;;;;;;;32.50;18.52;;;5.30;99.90;;;;;;4976152;28;20030;-76
2024/01/17 09:11:12;;;;;;;32.58;20.85;;;5.30;99.90;;;;;;4971835;28;20079;-79
2024/01/17 09:13:38;;;;;;;36.78;22.35;;;5.30;99.90;;;;;;4975771;28;20030;-78
2024/01/17 09:16:05;;;;;;;34.63;20.73;;;5.30;99.90;;;;;;4976076;28;20035;-76
2024/01/17 09:18:36;;;;;;;32.45;18.05;;;5.30;99.90;;;;;;4957790;28;20051;-76
2024/01/17 09:21:04;;;;;;;32.22;21.02;;;5.40;99.90;;;;;;4940074;28;20031;-76
2024/01/17 09:23:30;;;;;;;28.95;18.88;;;5.40;99.90;;;;;;4958577;28;20105;-78
2024/01/17 09:25:56;;;;;;;29.75;18.15;;;5.40;99.90;;;;;;4973945;28;20166;-78
2024/01/17 09:28:22;;;;;;;29.05;16.80;;;5.40;99.90;;;;;;4975493;28;20496;-77
2024/01/17 09:30:48;;;;;;;32.15;19.60;;;5.40;99.90;;;;;;4974899;28;20033;-77
2024/01/17 09:33:13;;;;;;;28.95;17.95;;;5.50;99.90;;;;;;4975561;28;20054;-77
2024/01/17 09:35:42;;;;;;;25.33;15.70;;;5.60;99.90;;;;;;4975378;28;20101;-77
2024/01/17 09:38:11;;;;;;;36.58;19.83;;;5.60;99.90;;;;;;4975991;28;20077;-77
2024/01/17 09:40:38;;;;;;;32.50;19.48;;;5.70;99.90;;;;;;4974373;28;20031;-78
2024/01/17 09:43:06;;;;;;;35.53;19.63;;;5.70;99.90;;;;;;4974798;28;20466;-77
2024/01/17 09:45:33;;;;;;;33.45;20.27;;;5.80;99.90;;;;;;4975833;28;20031;-77
2024/01/17 09:48:02;;;;;;;32.25;19.63;;;5.90;99.90;;;;;;4975358;28;20118;-78
2024/01/17 09:50:28;;;;;;;31.92;20.38;;;5.90;99.90;;;;;;4974698;28;20042;-78
2024/01/17 09:52:57;;;;;;;31.13;18.15;;;6.00;99.90;;;;;;4974739;28;20368;-79
2024/01/17 09:55:25;;;;;;;25.80;14.52;;;6.10;99.90;;;;;;4974719;28;20478;-77
2024/01/17 09:57:54;;;;;;;28.52;16.30;;;6.20;99.90;;;;;;4957671;28;20422;-78
2024/01/17 10:00:21;;;;;;;31.17;17.05;;;6.40;99.90;;;;;;4973645;28;20509;-77
2024/01/17 10:02:48;;;;;;;28.48;16.02;;;6.40;99.90;;;;;;4975050;28;20098;-79
2024/01/17 10:05:16;;;;;;;31.23;15.82;;;6.60;99.90;;;;;;4975007;28;20019;-78
2024/01/17 10:07:42;;;;;;;31.88;17.38;;;6.70;99.90;;;;;;4975212;28;20035;-78
2024/01/17 10:10:11;;;;;;;37.13;19.67;;;6.90;99.90;;;;;;4973962;28;20049;-78
2024/01/17 10:12:37;;;;;;;33.90;19.95;;;6.90;99.90;;;;;;4974876;28;20122;-79
2024/01/17 10:15:07;;;;;;;38.60;18.35;;;6.90;99.90;;;;;;4974377;28;20033;-77
2024/01/17 10:17:36;;;;;;;38.00;25.17;;;7.00;99.90;;;;;;4974900;28;20545;-78
2024/01/17 10:20:02;;;;;;;39.72;23.40;;;7.00;99.90;;;;;;4974616;28;20034;-79
2024/01/17 10:22:28;;;;;;;38.20;24.83;;;7.10;99.90;;;;;;4972973;28;20035;-78
2024/01/17 10:24:54;;;;;;;40.80;23.35;;;7.10;99.90;;;;;;4974441;28;20031;-78
2024/01/17 10:27:21;;;;;;;34.70;20.77;;;7.20;99.90;;;;;;4974972;28;20035;-78
2024/01/17 10:29:47;;;;;;;30.38;17.08;;;7.30;99.90;;;;;;4973550;28;20123;-79
2024/01/17 10:32:13;;;;;;;28.52;16.90;;;7.40;99.90;;;;;;4974087;28;20034;-79
2024/01/17 10:34:41;;;;;;;22.85;14.25;;;7.50;99.90;;;;;;4974357;28;20029;-80
2024/01/17 10:37:11;;;;;;;27.90;17.27;;;7.50;99.90;;;;;;4974251;28;20117;-77
2024/01/17 10:39:44;;;;;;;26.88;16.38;;;7.60;99.90;;;;;;4961650;28;20041;-78
2024/01/17 10:42:22;;;;;;;28.65;18.77;;;7.70;99.90;;;;;;4957951;28;20047;-79
2024/01/17 10:44:48;;;;;;;32.78;20.05;;;7.70;99.90;;;;;;4974330;28;20092;-77
2024/01/17 10:47:14;;;;;;;32.72;19.80;;;7.90;99.90;;;;;;4973260;28;20102;-79
2024/01/17 10:49:40;;;;;;;32.63;18.85;;;7.90;99.90;;;;;;4974161;28;20483;-79
2024/01/17 10:52:09;;;;;;;30.85;18.23;;;7.90;99.90;;;;;;4973931;28;20034;-78
2024/01/17 10:54:50;;;;;;;30.90;18.15;;;8.00;99.90;;;;;;4973871;28;20030;-78
2024/01/17 10:57:19;;;;;;;28.63;16.30;;;8.10;99.90;;;;;;4972577;28;20058;-77
2024/01/17 10:59:47;;;;;;;35.25;17.25;;;8.10;99.90;;;;;;4970247;28;20034;-78
2024/01/17 11:02:21;;;;;;;30.42;17.70;;;8.10;99.90;;;;;;4972943;28;20035;-78
2024/01/17 11:05:01;;;;;;;28.48;14.88;;;8.10;99.90;;;;;;4956516;28;20042;-76
2024/01/17 11:07:31;;;;;;;27.13;14.15;;;8.20;99.90;;;;;;4968799;28;20027;-77
2024/01/17 11:10:02;;;;;;;27.90;14.45;;;8.20;99.90;;;;;;4973237;28;20063;-78
2024/01/17 11:12:31;;;;;;;23.90;14.35;;;8.30;99.90;;;;;;4973993;28;20035;-79
2024/01/17 11:15:00;;;;;;;26.70;16.20;;;8.30;99.90;;;;;;4973882;28;20025;-77
2024/01/17 11:17:31;;;;;;;24.90;14.65;;;8.40;99.90;;;;;;4955052;28;20038;-78
2024/01/17 11:19:59;;;;;;;23.02;13.10;;;8.40;99.90;;;;;;4970364;28;20102;-78
2024/01/17 11:22:26;;;;;;;25.85;14.65;;;8.50;99.90;;;;;;4967533;28;20045;-78
2024/01/17 11:25:13;;;;;;;29.30;15.73;;;8.60;99.90;;;;;;4971541;28;20062;-78
2024/01/17 11:27:42;;;;;;;24.42;13.75;;;8.60;99.90;;;;;;4954858;28;20348;-79
2024/01/17 11:30:54;;;;;;;26.55;15.20;;;8.70;99.90;;;;;;4947228;29;20110;-79
2024/01/17 11:33:20;;;;;;;41.38;20.75;;;8.80;99.90;;;;;;4859245;29;20084;-76
2024/01/17 11:35:50;;;;;;;35.08;20.40;;;8.80;99.90;;;;;;4878628;29;20092;-77
2024/01/17 11:38:25;;;;;;;38.25;20.88;;;8.80;99.90;;;;;;4875899;29;21604;-78
2024/01/17 11:40:56;;;;;;;49.58;26.75;;;8.90;99.90;;;;;;4855176;29;20033;-79
2024/01/17 11:43:26;;;;;;;37.40;21.77;;;8.90;99.90;;;;;;4876453;29;20056;-78
2024/01/17 11:45:53;;;;;;;38.42;22.50;;;8.90;99.90;;;;;;4876504;29;20524;-78
2024/01/17 11:48:27;;;;;;;35.05;21.48;;;8.90;99.90;;;;;;4876116;29;20029;-79
2024/01/17 11:51:11;;;;;;;40.83;21.67;;;8.90;99.90;;;;;;4876407;29;20096;-78
2024/01/17 11:53:40;;;;;;;41.53;22.77;;;8.90;99.90;;;;;;4876182;29;20041;-78
2024/01/17 11:56:08;;;;;;;43.92;23.20;;;9.00;99.90;;;;;;4860571;29;20122;-78
2024/01/17 11:58:41;;;;;;;42.17;28.27;;;9.00;99.90;;;;;;4888375;29;20044;-79
2024/01/17 12:01:12;;;;;;;48.38;24.50;;;9.00;99.90;;;;;;4876172;29;20040;-79
2024/01/17 12:03:39;;;;;;;43.58;25.05;;;9.10;99.90;;;;;;4875659;29;20128;-78
2024/01/17 12:06:08;;;;;;;47.00;21.85;;;9.10;99.90;;;;;;4876126;29;20035;-79
2024/01/17 12:08:36;;;;;;;39.88;21.98;;;9.20;99.90;;;;;;4899177;29;20137;-78
2024/01/17 12:11:02;;;;;;;39.50;22.65;;;9.30;99.90;;;;;;4967042;28;20570;-78
2024/01/17 12:13:29;;;;;;;38.85;21.95;;;9.30;99.90;;;;;;4972982;28;20023;-78
2024/01/17 12:15:56;;;;;;;36.65;20.92;;;9.40;99.90;;;;;;4972821;28;20094;-79
2024/01/17 12:18:26;;;;;;;45.92;24.25;;;9.30;99.90;;;;;;4972692;28;20038;-79
2024/01/17 12:20:56;;;;;;;45.90;27.52;;;9.30;99.90;;;;;;4972908;28;20081;-79
2024/01/17 12:23:31;;;;;;;37.97;23.63;;;9.40;99.90;;;;;;4972046;28;20033;-79
2024/01/17 12:26:00;;;;;;;43.45;26.15;;;9.40;99.90;;;;;;4972636;28;20114;-78
2024/01/17 12:28:28;;;;;;;36.17;18.23;;;9.40;99.90;;;;;;4972879;28;20170;-79
2024/01/17 12:31:02;;;;;;;36.20;19.88;;;9.40;99.90;;;;;;4972858;28;20161;-78
2024/01/17 12:33:33;;;;;;;32.58;19.35;;;9.40;99.90;;;;;;4972816;28;20066;-79
2024/01/17 12:36:00;;;;;;;32.67;18.90;;;9.50;99.90;;;;;;4972639;28;20542;-79
2024/01/17 12:38:30;;;;;;;32.20;16.58;;;9.40;99.90;;;;;;4972878;28;20091;-80
2024/01/17 12:41:03;;;;;;;32.28;17.42;;;9.50;99.90;;;;;;4972429;28;20066;-78
2024/01/17 12:43:35;;;;;;;42.78;22.65;;;9.50;99.90;;;;;;4940041;28;20023;-78
2024/01/17 12:46:05;;;;;;;31.40;17.20;;;9.50;99.90;;;;;;4972442;28;20474;-78
2024/01/17 12:48:38;;;;;;;33.45;18.98;;;9.60;99.90;;;;;;4972754;28;20367;-79
2024/01/17 12:51:09;;;;;;;30.73;15.18;;;9.60;99.90;;;;;;4939707;28;20038;-78
2024/01/17 12:53:39;;;;;;;24.95;15.88;;;9.60;99.90;;;;;;4972343;28;20615;-78
2024/01/17 12:56:05;;;;;;;32.35;18.08;;;9.60;99.90;;;;;;4972792;28;20097;-77
2024/01/17 12:58:31;;;;;;;37.92;20.85;;;9.60;99.90;;;;;;4972139;28;20130;-78
2024/01/17 13:01:00;;;;;;;28.92;18.52;;;9.60;99.90;;;;;;4972549;28;20097;-77
2024/01/17 13:03:26;;;;;;;49.70;27.02;;;9.60;99.90;;;;;;4972479;28;20075;-77
2024/01/17 13:06:11;;;;;;;40.33;22.25;;;9.70;99.90;;;;;;4972749;28;20165;-77
2024/01/17 13:08:40;;;;;;;47.90;27.63;;;9.60;99.90;;;;;;4939523;28;20031;-78
2024/01/17 13:11:18;;;;;;;57.75;30.40;;;9.70;99.90;;;;;;4972041;28;20055;-78
2024/01/17 13:13:44;;;;;;;49.90;26.92;;;9.70;99.90;;;;;;4959763;28;20130;-78
2024/01/17 13:16:15;;;;;;;30.15;17.75;;;9.70;99.90;;;;;;4972251;28;20063;-78